createdAt,value
2017-04-27T06:14:10.854Z,3.04
2017-04-27T06:16:37.018Z,2.90
2017-04-27T06:19:03.362Z,2.38
2017-04-27T06:21:29.657Z,2.88
2017-04-27T06:23:56.561Z,2.98
2017-04-27T06:26:22.727Z,2.82
2017-04-27T06:28:48.864Z,1.92
2017-04-27T06:31:16.425Z,1.76
2017-04-27T06:33:43.293Z,2.22
2017-04-27T06:36:09.430Z,2.68
2017-04-27T06:38:36.393Z,2.30
2017-04-27T06:41:02.643Z,1.42
2017-04-27T06:43:28.862Z,1.32
2017-04-27T06:45:55.277Z,1.14
2017-04-27T06:48:22.037Z,1.60
2017-04-27T06:50:48.167Z,1.30
2017-04-27T06:53:14.316Z,1.22
2017-04-27T06:55:41.222Z,1.44
2017-04-27T06:58:07.503Z,1.56
2017-04-27T07:00:35.203Z,1.90
2017-04-27T07:03:06.143Z,2.04
2017-04-27T07:05:34.134Z,2.04
2017-04-27T07:08:00.488Z,2.06
2017-04-27T07:10:26.906Z,1.92
2017-04-27T07:12:53.202Z,2.10
2017-04-27T07:15:19.524Z,1.06
2017-04-27T07:17:45.837Z,1.42
2017-04-27T07:20:12.731Z,1.46
2017-04-27T07:22:39.613Z,1.84
2017-04-27T07:25:06.581Z,1.50
2017-04-27T07:27:32.758Z,1.98
2017-04-27T07:29:58.922Z,1.60
2017-04-27T07:32:26.810Z,0.90
2017-04-27T07:34:52.945Z,0.94
2017-04-27T07:37:19.210Z,0.84
2017-04-27T07:39:45.477Z,1.34
2017-04-27T07:42:13.387Z,1.40
2017-04-27T09:52:48.604Z,16.12
2017-04-27T11:32:40.716Z,2.80
2017-04-27T11:35:10.887Z,2.50
2017-04-27T11:37:40.242Z,2.56
2017-04-27T11:40:11.185Z,2.50
2017-04-27T11:42:40.681Z,2.46
2017-04-27T11:45:10.038Z,2.40
2017-04-27T11:47:39.416Z,3.12
2017-04-27T11:50:10.159Z,2.42
2017-04-27T11:52:39.531Z,2.16
2017-04-27T11:55:09.620Z,2.16
2017-04-27T11:57:39.022Z,1.82
2017-04-27T12:00:08.398Z,2.04
2017-04-27T12:02:37.751Z,1.90
2017-04-27T12:05:07.870Z,1.90
2017-04-27T12:07:37.230Z,1.74
2017-04-27T12:10:06.654Z,1.70
2017-04-27T12:12:36.088Z,1.64
2017-04-27T12:15:05.482Z,1.97
2017-04-27T12:17:34.811Z,1.34
2017-04-27T12:20:03.443Z,1.46
2017-04-27T12:22:31.831Z,1.54
2017-04-27T12:25:00.223Z,1.48
2017-04-27T12:27:28.702Z,1.50
2017-04-27T12:29:57.096Z,1.54
2017-04-27T12:32:25.483Z,1.44
2017-04-27T12:34:53.967Z,1.34
2017-04-27T12:37:23.382Z,1.30
2017-04-27T12:39:51.835Z,1.08
2017-04-27T12:42:20.298Z,1.12
2017-04-27T12:44:49.585Z,1.16
2017-04-27T12:47:17.971Z,1.02
2017-04-27T12:49:46.367Z,0.88
2017-04-27T12:52:14.822Z,1.20
2017-04-27T12:54:43.216Z,0.96
2017-04-27T12:57:11.598Z,1.40
2017-04-27T12:59:40.846Z,1.20
2017-04-27T13:02:09.244Z,0.96
2017-04-27T13:04:38.399Z,1.02
2017-04-27T13:07:06.784Z,1.10
2017-04-27T13:09:35.197Z,1.32
2017-04-27T13:12:04.870Z,1.56
2017-04-27T13:14:33.309Z,1.72
2017-04-27T13:17:01.714Z,1.58
2017-04-27T13:19:30.656Z,2.42
2017-04-27T13:21:59.565Z,1.46
2017-04-27T13:24:28.448Z,1.40
2017-04-27T13:26:56.975Z,1.34
2017-04-27T13:29:25.364Z,1.62
2017-04-27T13:31:53.740Z,1.92
2017-04-27T13:34:22.195Z,1.78
2017-04-27T13:36:50.599Z,1.58
2017-04-27T13:39:19.010Z,1.38
2017-04-27T13:41:47.643Z,1.46
2017-04-27T13:44:16.025Z,1.16
2017-04-27T13:46:44.421Z,1.28
2017-04-27T13:49:12.918Z,1.58
2017-04-27T13:51:41.324Z,1.06
2017-04-27T13:54:10.491Z,1.26
2017-04-27T13:56:38.993Z,1.98
2017-04-27T13:59:07.387Z,1.16
2017-04-27T14:01:35.813Z,1.16
2017-04-27T14:04:04.589Z,1.54
2017-04-27T14:06:33.039Z,1.18
2017-04-27T14:09:03.128Z,1.08
2017-04-27T14:11:31.599Z,1.20
2017-04-27T14:14:00.930Z,1.58
2017-04-27T14:16:30.096Z,1.10
2017-04-27T14:18:58.582Z,1.36
2017-04-27T14:21:28.011Z,1.10
2017-04-27T14:23:56.408Z,1.40
2017-04-27T14:26:26.534Z,1.28
2017-04-27T14:28:55.020Z,1.60
2017-04-27T14:31:24.166Z,1.20
2017-04-27T14:33:53.091Z,1.06
2017-04-27T14:36:22.325Z,1.68
2017-04-27T14:38:50.711Z,2.72
2017-04-27T14:41:19.104Z,1.42
2017-04-27T14:43:49.223Z,1.84
2017-04-27T14:46:18.354Z,3.22
2017-04-27T14:48:46.827Z,1.94
2017-04-27T14:51:15.221Z,3.02
2017-04-27T14:53:43.623Z,1.34
2017-04-27T14:56:12.870Z,1.88
2017-04-27T14:58:41.480Z,1.10
2017-04-27T15:01:10.007Z,1.28
2017-04-27T15:03:38.397Z,1.70
2017-04-27T15:06:06.786Z,1.52
2017-04-27T15:08:35.256Z,1.30
2017-04-27T15:11:03.744Z,1.66
2017-04-27T15:13:32.145Z,1.30
2017-04-27T15:16:00.606Z,1.10
2017-04-27T15:18:29.015Z,1.20
2017-04-27T15:20:57.600Z,1.48
2017-04-27T15:23:26.060Z,1.12
2017-04-27T15:25:54.514Z,1.00
2017-04-27T15:28:22.991Z,1.24
2017-04-27T15:30:51.435Z,1.34
2017-04-27T15:33:19.819Z,0.90
2017-04-27T15:35:48.273Z,1.28
2017-04-27T15:38:17.535Z,1.10
2017-04-27T15:40:46.735Z,1.20
2017-04-27T15:43:15.143Z,1.36
2017-04-27T15:45:43.609Z,1.30
2017-04-27T15:48:12.001Z,1.20
2017-04-27T15:50:40.391Z,1.90
2017-04-27T15:53:10.003Z,1.20
2017-04-27T15:55:38.473Z,1.18
2017-04-27T15:58:06.875Z,1.56
2017-04-27T16:00:35.262Z,1.14
2017-04-27T16:03:03.743Z,1.52
2017-04-27T16:05:32.132Z,1.52
2017-04-27T16:08:00.529Z,1.38
2017-04-27T16:10:29.749Z,1.32
2017-04-27T16:12:58.897Z,1.56
2017-04-27T16:15:27.962Z,1.20
2017-04-27T16:17:56.453Z,1.70
2017-04-27T16:20:24.891Z,1.52
2017-04-27T16:22:54.041Z,1.28
2017-04-27T16:25:22.539Z,1.20
2017-04-27T16:27:51.615Z,1.62
2017-04-27T16:30:20.007Z,1.72
2017-04-27T16:32:48.494Z,2.28
2017-04-27T16:35:16.900Z,2.28
2017-04-27T16:37:46.064Z,1.82
2017-04-27T16:40:14.540Z,2.14
2017-04-27T16:42:42.928Z,2.58
2017-04-27T16:45:11.402Z,2.44
2017-04-27T16:47:39.866Z,2.44
2017-04-27T16:50:08.371Z,1.94
2017-04-27T16:52:36.848Z,2.06
2017-04-27T16:55:05.228Z,2.60
2017-04-27T16:57:33.627Z,2.40
2017-04-27T17:00:03.185Z,2.90
2017-04-27T17:02:31.576Z,2.60
2017-04-27T17:05:00.047Z,2.60
2017-04-27T17:10:28.112Z,2.78
2017-04-27T17:12:57.423Z,2.46
2017-04-27T17:15:25.911Z,2.48
2017-04-27T17:17:55.115Z,2.34
2017-04-27T17:20:23.602Z,2.42
2017-04-27T17:22:52.005Z,1.88
2017-04-27T17:25:20.425Z,2.58
2017-04-27T17:27:49.387Z,1.76
2017-04-27T17:30:18.826Z,2.62
2017-04-27T17:32:47.661Z,2.10
2017-04-27T17:35:16.364Z,1.68
2017-04-27T17:37:44.998Z,1.64
2017-04-27T17:40:14.331Z,2.14
2017-04-27T17:42:43.018Z,1.76
2017-04-27T17:45:11.510Z,1.84
2017-04-27T17:47:40.220Z,1.46
2017-04-27T17:50:09.764Z,1.62
2017-04-27T17:52:38.263Z,1.46
2017-04-27T17:55:06.801Z,2.16
2017-04-27T17:57:35.311Z,2.36
2017-04-27T18:00:04.654Z,2.02
2017-04-27T18:02:33.273Z,2.14
2017-04-27T18:05:02.569Z,2.30
2017-04-27T18:07:32.509Z,1.64
2017-04-27T18:10:01.738Z,2.90
2017-04-27T18:12:30.129Z,2.58
2017-04-27T18:14:59.397Z,2.80
2017-04-27T18:17:28.611Z,2.94
2017-04-27T18:19:57.558Z,2.60
2017-04-27T18:22:26.022Z,2.74
2017-04-27T18:24:54.401Z,3.26
2017-04-27T18:27:22.868Z,3.10
2017-04-27T18:29:52.211Z,4.02
2017-04-27T18:32:20.808Z,4.72
2017-04-27T18:34:49.232Z,4.60
2017-04-27T18:37:17.631Z,6.58
2017-04-27T18:39:46.009Z,6.96
2017-04-27T18:42:14.494Z,6.54
2017-04-27T18:44:43.705Z,7.28
2017-04-27T18:47:12.102Z,7.04
2017-04-27T18:49:41.319Z,7.40
2017-04-27T18:52:09.711Z,8.04
2017-04-27T18:54:38.176Z,9.22
2017-04-27T18:57:07.221Z,7.20
2017-04-27T18:59:37.229Z,7.72
2017-04-27T19:02:07.168Z,8.24
2017-04-27T19:04:35.609Z,7.52
2017-04-27T19:07:03.995Z,7.96
2017-04-27T19:09:32.491Z,7.26
2017-04-27T19:12:00.899Z,7.00
2017-04-27T19:14:30.054Z,6.24
2017-04-27T19:16:58.528Z,8.12
2017-04-27T19:19:28.335Z,7.74
2017-04-27T19:21:56.726Z,8.16
2017-04-27T19:24:25.243Z,6.80
2017-04-27T19:26:53.637Z,7.04
2017-04-27T19:29:22.798Z,7.64
2017-04-27T19:31:51.278Z,8.30
2017-04-27T19:34:19.682Z,7.14
2017-04-27T19:36:48.919Z,7.16
2017-04-27T19:39:17.435Z,7.96
2017-04-27T19:41:45.833Z,8.40
2017-04-27T19:44:14.471Z,8.28
2017-04-27T19:46:42.963Z,7.52
2017-04-27T19:49:11.346Z,8.52
2017-04-27T19:52:52.385Z,8.18
2017-04-27T19:55:21.781Z,8.44
2017-04-27T19:57:50.187Z,9.36
2017-04-27T20:00:19.580Z,9.02
2017-04-27T20:02:48.756Z,8.62
2017-04-27T20:05:17.141Z,8.76
2017-04-27T20:07:46.407Z,8.12
2017-04-27T20:10:14.869Z,8.88
2017-04-27T20:12:43.259Z,8.22
2017-04-27T20:15:11.640Z,8.88
2017-04-27T20:17:40.106Z,8.78
2017-04-27T20:20:09.289Z,7.60
2017-04-27T20:22:37.667Z,8.40
2017-04-27T20:25:06.046Z,8.74
2017-04-27T20:27:34.540Z,8.04
2017-04-27T20:30:05.923Z,8.08
2017-04-27T20:32:34.863Z,7.44
2017-04-27T20:35:03.251Z,6.54
2017-04-27T20:37:31.652Z,8.32
2017-04-27T20:40:01.034Z,8.56
2017-04-27T20:42:29.909Z,7.78
2017-04-27T20:44:59.105Z,8.50
2017-04-27T20:47:27.503Z,7.14
2017-04-27T20:49:55.944Z,7.24
2017-04-27T20:52:24.361Z,7.48
2017-04-27T20:54:52.747Z,9.24
2017-04-27T20:57:21.733Z,9.08
2017-04-27T20:59:50.120Z,8.10
2017-04-27T21:02:18.553Z,8.10
2017-04-27T21:04:47.062Z,7.46
2017-04-27T21:07:15.454Z,7.42
2017-04-27T21:09:43.934Z,8.10
2017-04-27T21:12:13.297Z,9.52
2017-04-27T21:14:41.682Z,8.60
2017-04-27T21:17:11.698Z,8.94
2017-04-27T21:19:40.074Z,8.48
2017-04-27T21:22:09.239Z,8.86
2017-04-27T21:24:37.706Z,8.98
2017-04-27T21:27:06.727Z,10.38
2017-04-27T21:29:36.002Z,9.04
2017-04-27T21:32:04.465Z,10.26
2017-04-27T21:34:32.853Z,9.12
2017-04-27T21:37:01.247Z,11.44
2017-04-27T21:39:29.786Z,11.02
2017-04-27T21:41:59.654Z,11.34
2017-04-27T21:44:28.124Z,10.30
2017-04-27T21:46:57.710Z,10.00
2017-04-27T21:49:26.968Z,11.08
2017-04-27T21:52:32.836Z,12.24
2017-04-27T21:55:01.218Z,11.28
2017-04-27T21:57:30.381Z,10.40
2017-04-27T21:59:59.626Z,9.44
2017-04-27T22:02:28.785Z,11.14
2017-04-27T22:04:57.177Z,11.06
2017-04-27T22:07:25.643Z,9.28
2017-04-27T22:09:54.963Z,10.42
2017-04-27T22:12:23.357Z,10.58
2017-04-27T22:14:52.583Z,10.68
2017-04-27T22:17:21.848Z,10.72
2017-04-27T22:19:51.003Z,10.40
2017-04-27T22:22:19.383Z,11.26
2017-04-27T22:24:48.081Z,10.14
2017-04-27T22:27:16.700Z,11.92
2017-04-27T22:29:45.160Z,12.38
2017-04-27T22:32:13.628Z,10.78
2017-04-27T22:34:42.132Z,10.70
2017-04-27T22:37:11.866Z,12.22
2017-04-27T22:39:40.375Z,12.06
2017-04-27T22:42:08.768Z,12.78
2017-04-27T22:44:37.238Z,12.24
2017-04-27T22:47:06.609Z,11.74
2017-04-27T22:49:35.793Z,12.18
2017-04-27T22:52:05.195Z,10.90
2017-04-27T22:54:34.347Z,13.32
2017-04-27T22:57:02.754Z,11.38
2017-04-27T22:59:31.222Z,13.48
2017-04-27T23:01:59.624Z,11.10
2017-04-27T23:04:28.200Z,13.20
2017-04-27T23:06:56.610Z,11.52
2017-04-27T23:09:26.727Z,12.96
2017-04-27T23:11:55.883Z,11.34
2017-04-27T23:14:24.297Z,13.46
2017-04-27T23:16:53.529Z,13.44
2017-04-27T23:19:21.933Z,12.06
2017-04-27T23:21:50.872Z,14.08
2017-04-27T23:24:20.124Z,11.64
2017-04-27T23:26:48.517Z,12.00
2017-04-27T23:29:16.925Z,12.44
2017-04-27T23:31:45.402Z,12.92
2017-04-27T23:34:14.549Z,11.02
2017-04-27T23:36:43.586Z,11.70
2017-04-27T23:39:12.060Z,12.78
2017-04-27T23:41:40.447Z,11.46
2017-04-27T23:44:11.323Z,12.04
2017-04-27T23:46:40.538Z,11.22
2017-04-27T23:49:08.926Z,12.20
2017-04-27T23:51:38.031Z,10.86
2017-04-27T23:54:06.835Z,12.60
2017-04-27T23:56:36.177Z,12.08
2017-04-27T23:59:04.622Z,11.54
